aviador You're here:

EPRZ Decoded Metar

RZESZOW in POLAND
Report Time2018-04-24 02:30:00
UTC Time2018-04-24 02:56:28
Flight Rules mvfr MVFR
Wind260° at 08 kt
W.Decomp.*RWY 27: 7.7 kt HW 2.1 kt LCW
W.Rank260° ranks 2
Current wind is below 260° avg. (8.5)
Visibility9999 m
Phenomena:N/A
Clouds:Broken 020 Hf
Expected CloudBase > 800 ft AGL from Temp-Dew spread
Ceiling2,000 ft
Temp14°C (ISA 0)
Dew Point12°C (88% RH)
AAT11.8°C
QNH1012 hPa
Density Alt925 ft
Elevation663 ft
Report Wrong Elevation
Raw Report
EPRZ 240230Z 26008KT 9999 BKN020 14/12 Q1012=

Extra information for EPRZ:More info

Metar Taf Metar & Taf Last 4 Metars F.Rules Stats Wind Profile Meteogram Temp Stats Airport Information Weather charts Add Link Nearby VenuesMetar ALERT Operation Metar Decoded Social comments